createdAt,value
2018-03-25T00:01:11.054Z,11.20
2018-03-25T00:03:38.456Z,13.10
2018-03-25T00:06:05.834Z,12.57
2018-03-25T00:08:33.233Z,12.83
2018-03-25T00:11:00.614Z,12.53
2018-03-25T00:13:28.006Z,13.40
2018-03-25T00:15:55.458Z,12.67
2018-03-25T00:18:22.854Z,12.40
2018-03-25T00:20:50.262Z,12.67
2018-03-25T00:23:17.661Z,12.70
2018-03-25T00:25:45.079Z,12.30
2018-03-25T00:28:12.474Z,13.27
2018-03-25T00:30:39.858Z,13.62
2018-03-25T00:33:07.250Z,12.60
2018-03-25T00:35:34.639Z,12.63
2018-03-25T00:38:02.062Z,12.47
2018-03-25T00:40:29.451Z,12.97
2018-03-25T00:42:56.879Z,14.20
2018-03-25T00:45:24.263Z,12.47
2018-03-25T00:47:51.654Z,13.93
2018-03-25T00:50:19.037Z,13.53
2018-03-25T00:52:46.490Z,12.73
2018-03-25T00:55:13.881Z,12.50
2018-03-25T00:57:41.298Z,13.20
2018-03-25T01:00:08.702Z,14.00
2018-03-25T01:02:36.118Z,13.27
2018-03-25T01:05:03.592Z,12.73
2018-03-25T01:07:30.990Z,13.57
2018-03-25T01:09:58.380Z,13.47
2018-03-25T01:12:25.851Z,14.90
2018-03-25T01:14:53.246Z,14.43
2018-03-25T01:17:20.626Z,13.20
2018-03-25T01:19:48.026Z,13.70
2018-03-25T01:22:15.419Z,14.93
2018-03-25T01:24:42.814Z,15.20
2018-03-25T01:27:10.278Z,14.27
2018-03-25T01:29:37.738Z,14.33
2018-03-25T01:32:05.208Z,15.80
2018-03-25T01:34:32.602Z,15.20
2018-03-25T01:37:00.098Z,16.00
2018-03-25T01:39:27.566Z,14.67
2018-03-25T01:41:55.019Z,15.90
2018-03-25T01:44:22.477Z,15.77
2018-03-25T01:46:49.870Z,15.37
2018-03-25T01:49:17.258Z,15.60
2018-03-25T01:51:44.647Z,15.53
2018-03-25T01:54:12.102Z,15.80
2018-03-25T01:56:39.491Z,15.60
2018-03-25T01:59:06.882Z,16.70
2018-03-25T02:01:34.267Z,16.90
2018-03-25T02:04:01.668Z,15.80
2018-03-25T02:06:29.079Z,17.33
2018-03-25T02:08:56.468Z,16.20
2018-03-25T02:11:23.886Z,17.60
2018-03-25T02:13:51.348Z,15.70
2018-03-25T02:16:18.735Z,16.83
2018-03-25T02:18:46.140Z,15.07
2018-03-25T02:21:13.523Z,16.70
2018-03-25T02:23:40.925Z,17.27
2018-03-25T02:26:08.305Z,16.60
2018-03-25T02:28:35.691Z,15.30
2018-03-25T02:31:03.087Z,16.10
2018-03-25T02:33:30.480Z,17.00
2018-03-25T02:35:57.942Z,17.90
2018-03-25T02:38:25.602Z,16.40
2018-03-25T02:40:53.160Z,16.10
2018-03-25T02:43:20.615Z,15.53
2018-03-25T02:45:48.002Z,14.87
2018-03-25T02:48:15.438Z,16.10
2018-03-25T02:50:42.888Z,14.83
2018-03-25T02:53:10.279Z,15.77
2018-03-25T02:55:37.676Z,17.00
2018-03-25T02:58:05.070Z,15.97
2018-03-25T03:00:32.480Z,16.17
2018-03-25T03:02:59.867Z,17.83
2018-03-25T03:05:27.251Z,17.47
2018-03-25T03:07:54.721Z,16.80
2018-03-25T03:10:22.126Z,17.80
2018-03-25T03:12:49.515Z,16.50
2018-03-25T03:15:16.906Z,17.17
2018-03-25T03:17:44.291Z,16.10
2018-03-25T03:20:11.691Z,18.03
2018-03-25T03:22:39.092Z,17.90
2018-03-25T03:25:06.544Z,15.63
2018-03-25T03:27:33.942Z,17.83
2018-03-25T03:30:01.339Z,19.27
2018-03-25T03:32:28.807Z,17.23
2018-03-25T03:34:56.254Z,19.27
2018-03-25T03:37:23.666Z,19.43
2018-03-25T03:39:51.085Z,18.70
2018-03-25T03:42:18.579Z,16.30
2018-03-25T03:44:45.974Z,19.20
2018-03-25T03:47:13.368Z,18.30
2018-03-25T03:49:40.841Z,17.70
2018-03-25T03:52:08.307Z,18.60
2018-03-25T03:54:35.704Z,18.23
2018-03-25T03:57:03.123Z,17.60
2018-03-25T03:59:30.590Z,18.20
2018-03-25T04:01:58.039Z,17.77
2018-03-25T04:04:25.430Z,16.40
2018-03-25T04:06:52.820Z,18.30
2018-03-25T04:09:20.295Z,17.50
2018-03-25T04:11:47.686Z,18.90
2018-03-25T04:14:15.077Z,18.10
2018-03-25T04:16:42.563Z,18.60
2018-03-25T04:19:10.026Z,17.53
2018-03-25T04:21:37.474Z,18.57
2018-03-25T04:24:04.870Z,17.50
2018-03-25T04:26:32.260Z,19.00
2018-03-25T04:28:59.651Z,18.60
2018-03-25T04:31:27.038Z,18.37
2018-03-25T04:33:54.450Z,17.93
2018-03-25T04:36:21.834Z,17.70
2018-03-25T04:38:49.223Z,18.60
2018-03-25T04:41:16.616Z,20.33
2018-03-25T04:43:44.081Z,19.23
2018-03-25T04:46:11.467Z,18.27
2018-03-25T04:48:38.851Z,18.17
2018-03-25T04:51:06.238Z,19.20
2018-03-25T04:53:33.634Z,18.83
2018-03-25T04:56:01.052Z,21.40
2018-03-25T04:58:28.524Z,18.03
2018-03-25T05:00:55.929Z,19.53
2018-03-25T05:03:23.364Z,18.90
2018-03-25T05:05:50.759Z,17.50
2018-03-25T05:08:18.142Z,18.43
2018-03-25T05:10:45.542Z,20.00
2018-03-25T05:13:12.934Z,20.00
2018-03-25T05:15:40.426Z,19.60
2018-03-25T05:18:07.813Z,18.77
2018-03-25T05:20:35.255Z,18.13
2018-03-25T05:23:02.642Z,20.30
2018-03-25T05:25:30.055Z,20.80
2018-03-25T05:27:57.449Z,19.37
2018-03-25T05:30:24.838Z,19.40
2018-03-25T05:32:52.223Z,18.23
2018-03-25T05:35:19.622Z,19.90
2018-03-25T05:37:47.008Z,19.53
2018-03-25T05:40:14.403Z,19.57
2018-03-25T05:42:41.788Z,17.40
2018-03-25T05:45:09.182Z,20.40
2018-03-25T05:47:36.574Z,21.00
2018-03-25T05:50:03.968Z,20.30
2018-03-25T05:52:31.451Z,20.33
2018-03-25T05:54:58.915Z,19.13
2018-03-25T05:57:26.362Z,18.70
2018-03-25T05:59:53.762Z,19.43
2018-03-25T06:02:21.153Z,19.57
2018-03-25T06:04:48.552Z,19.60
2018-03-25T06:07:15.939Z,19.60
2018-03-25T06:09:43.335Z,19.53
2018-03-25T06:12:10.817Z,20.80
2018-03-25T06:14:38.210Z,18.27
2018-03-25T06:17:05.602Z,19.23
2018-03-25T06:19:33.007Z,18.70
2018-03-25T06:22:00.382Z,19.90
2018-03-25T06:24:27.897Z,19.70
2018-03-25T06:26:55.279Z,20.83
2018-03-25T06:29:22.686Z,18.57
2018-03-25T06:31:50.156Z,17.80
2018-03-25T06:34:17.602Z,17.30
2018-03-25T06:36:44.994Z,18.63
2018-03-25T06:39:12.402Z,19.67
2018-03-25T06:41:39.796Z,19.33
2018-03-25T06:44:07.183Z,18.73
2018-03-25T06:46:34.674Z,18.20
2018-03-25T06:49:02.143Z,19.17
2018-03-25T06:51:29.540Z,18.40
2018-03-25T06:53:56.943Z,18.87
2018-03-25T06:56:24.344Z,18.20
2018-03-25T06:58:51.735Z,18.73
2018-03-25T07:01:19.159Z,20.80
2018-03-25T07:03:46.582Z,20.23
2018-03-25T07:06:13.976Z,20.63
2018-03-25T07:08:41.376Z,20.20
2018-03-25T07:11:08.773Z,19.00
2018-03-25T07:13:36.163Z,18.60
2018-03-25T07:16:03.647Z,20.17
2018-03-25T07:18:31.038Z,18.97
2018-03-25T07:20:58.451Z,19.27
2018-03-25T07:23:25.926Z,19.13
2018-03-25T07:25:53.314Z,20.23
2018-03-25T07:28:20.707Z,18.60
2018-03-25T07:30:48.152Z,17.87
2018-03-25T07:33:15.535Z,18.87
2018-03-25T07:35:42.987Z,18.50
2018-03-25T07:38:10.383Z,18.70
2018-03-25T07:40:37.794Z,19.07
2018-03-25T07:43:05.189Z,18.07
2018-03-25T07:45:32.679Z,19.73
2018-03-25T07:48:00.003Z,18.70
2018-03-25T07:50:27.414Z,20.27
2018-03-25T07:52:54.807Z,17.83
2018-03-25T07:55:22.193Z,18.43
2018-03-25T07:57:49.694Z,19.00
2018-03-25T08:00:17.086Z,18.70
2018-03-25T08:02:44.475Z,17.70
2018-03-25T08:05:11.870Z,19.53
2018-03-25T08:07:39.307Z,18.80
2018-03-25T08:10:06.703Z,16.50
2018-03-25T08:12:34.103Z,17.93
2018-03-25T08:15:01.495Z,18.57
2018-03-25T08:17:28.896Z,16.70
2018-03-25T08:19:56.387Z,16.33
2018-03-25T08:22:23.803Z,17.73
2018-03-25T08:24:51.189Z,18.50
2018-03-25T08:27:18.603Z,17.27
2018-03-25T08:29:45.992Z,17.67
2018-03-25T08:32:13.477Z,15.60
2018-03-25T08:34:40.884Z,18.20
2018-03-25T08:37:08.278Z,15.93
2018-03-25T08:39:35.727Z,16.40
2018-03-25T08:42:03.142Z,15.17
2018-03-25T08:44:30.521Z,16.10
2018-03-25T08:46:57.927Z,13.40
2018-03-25T08:49:25.330Z,15.87
2018-03-25T08:51:52.807Z,16.47
2018-03-25T08:54:20.267Z,15.30
2018-03-25T08:56:47.666Z,14.50
2018-03-25T08:59:15.059Z,15.00
2018-03-25T09:01:42.531Z,14.67
2018-03-25T09:04:09.987Z,13.57
2018-03-25T09:06:37.390Z,13.20
2018-03-25T09:09:04.787Z,15.03
2018-03-25T09:11:32.254Z,14.07
2018-03-25T09:13:59.643Z,14.40
2018-03-25T09:16:27.048Z,12.93
2018-03-25T09:18:54.436Z,13.00
2018-03-25T09:21:21.835Z,12.20
2018-03-25T09:23:49.231Z,13.00
2018-03-25T09:26:16.631Z,11.70
2018-03-25T09:28:44.036Z,12.47
2018-03-25T09:31:11.499Z,11.73
2018-03-25T09:33:38.891Z,10.43
2018-03-25T09:36:06.310Z,10.80
2018-03-25T09:38:33.702Z,12.03
2018-03-25T09:41:01.115Z,12.27
2018-03-25T09:43:28.499Z,12.17
2018-03-25T09:45:55.934Z,10.70
2018-03-25T09:48:23.327Z,11.17
2018-03-25T09:50:50.750Z,11.40
2018-03-25T09:53:18.151Z,11.23
2018-03-25T09:55:45.559Z,10.57
2018-03-25T09:58:12.953Z,10.97
2018-03-25T10:00:40.360Z,11.17
2018-03-25T10:03:13.377Z,11.53
2018-03-25T10:05:40.840Z,10.93
2018-03-25T10:08:08.230Z,13.27
2018-03-25T10:10:35.690Z,11.57
2018-03-25T10:13:03.090Z,11.63
2018-03-25T10:15:30.482Z,11.87
2018-03-25T10:17:57.898Z,12.17
2018-03-25T10:20:25.294Z,12.60
2018-03-25T10:22:52.770Z,13.03
2018-03-25T10:25:21.163Z,12.00
2018-03-25T10:27:48.568Z,11.20
2018-03-25T10:30:15.958Z,11.77
2018-03-25T10:32:43.362Z,13.40
2018-03-25T10:35:10.766Z,12.30
2018-03-25T10:37:38.167Z,11.70
2018-03-25T10:40:05.567Z,11.60
2018-03-25T10:42:33.039Z,12.60
2018-03-25T10:45:00.504Z,12.47
2018-03-25T10:47:27.916Z,12.43
2018-03-25T10:49:55.414Z,12.20
2018-03-25T10:52:22.823Z,11.43
2018-03-25T10:54:50.446Z,13.80
2018-03-25T10:57:17.896Z,11.50
2018-03-25T10:59:45.295Z,12.20
2018-03-25T11:02:12.719Z,12.20
2018-03-25T11:04:40.170Z,11.83
2018-03-25T11:07:07.515Z,12.90
2018-03-25T11:09:34.920Z,11.67
2018-03-25T11:12:02.355Z,13.27
2018-03-25T11:14:29.754Z,12.07
2018-03-25T11:16:57.156Z,11.17
2018-03-25T11:19:24.555Z,11.83
2018-03-25T11:21:51.977Z,11.67
2018-03-25T11:24:19.346Z,11.60
2018-03-25T11:26:46.738Z,12.03
2018-03-25T11:29:14.152Z,10.50
2018-03-25T11:31:41.589Z,13.03
2018-03-25T11:34:08.992Z,12.43
2018-03-25T11:36:36.387Z,11.80
2018-03-25T11:39:03.791Z,11.57
2018-03-25T11:41:31.182Z,11.93
2018-03-25T11:43:58.614Z,11.37
2018-03-25T11:46:26.071Z,11.90
2018-03-25T11:48:53.529Z,11.70
2018-03-25T11:51:20.989Z,13.10
2018-03-25T11:53:48.441Z,12.60
2018-03-25T11:56:15.832Z,13.53
2018-03-25T11:58:43.230Z,11.70
2018-03-25T12:01:10.631Z,13.10
2018-03-25T12:03:38.038Z,12.90
2018-03-25T12:06:05.435Z,12.20
2018-03-25T12:08:32.842Z,13.30
2018-03-25T12:11:00.336Z,12.60
2018-03-25T12:13:27.754Z,12.93
2018-03-25T12:15:55.152Z,12.10
2018-03-25T12:18:22.627Z,12.90
2018-03-25T12:20:50.007Z,13.83
2018-03-25T12:23:17.413Z,12.27
2018-03-25T12:25:44.806Z,12.23
2018-03-25T12:28:12.226Z,13.80
2018-03-25T12:30:39.687Z,12.60
2018-03-25T12:33:07.087Z,13.63
2018-03-25T12:35:35.369Z,12.80
2018-03-25T12:38:02.817Z,12.53
2018-03-25T12:40:30.231Z,13.70
2018-03-25T12:42:57.804Z,13.40
2018-03-25T12:45:25.191Z,12.93
2018-03-25T12:47:52.607Z,13.60
2018-03-25T12:50:20.003Z,13.37
2018-03-25T12:52:47.415Z,13.07
2018-03-25T12:55:14.822Z,13.43
2018-03-25T12:57:42.210Z,15.70
2018-03-25T13:00:09.615Z,13.10
2018-03-25T13:02:37.039Z,13.23
2018-03-25T13:05:04.438Z,13.30
2018-03-25T13:07:31.839Z,12.67
2018-03-25T13:09:59.243Z,15.97
2018-03-25T13:12:26.663Z,13.10
2018-03-25T13:14:54.123Z,11.83
2018-03-25T13:17:21.583Z,11.80
2018-03-25T13:19:49.030Z,13.43
2018-03-25T13:22:16.423Z,12.20
2018-03-25T13:24:43.829Z,12.57
2018-03-25T13:27:11.268Z,12.67
2018-03-25T13:29:38.666Z,13.60
2018-03-25T13:32:06.211Z,13.53
2018-03-25T13:34:33.606Z,14.03
2018-03-25T13:37:01.011Z,12.03
2018-03-25T13:39:28.438Z,13.03
2018-03-25T13:41:55.838Z,13.77
2018-03-25T13:44:23.238Z,13.83
2018-03-25T13:46:50.690Z,13.30
2018-03-25T13:49:18.098Z,12.70
2018-03-25T13:51:45.491Z,13.90
2018-03-25T13:54:12.975Z,14.13
2018-03-25T13:56:40.436Z,14.80
2018-03-25T13:59:07.891Z,13.93
2018-03-25T14:01:35.347Z,13.40
2018-03-25T14:04:02.807Z,15.47
2018-03-25T14:06:30.262Z,13.37
2018-03-25T14:08:57.733Z,14.03
2018-03-25T14:11:25.127Z,14.87
2018-03-25T14:13:52.527Z,12.77
2018-03-25T14:16:19.928Z,14.23
2018-03-25T14:18:47.342Z,14.23
2018-03-25T14:21:14.742Z,12.90
2018-03-25T14:23:42.134Z,13.30
2018-03-25T14:26:09.611Z,13.07
2018-03-25T14:28:37.010Z,13.60
2018-03-25T14:31:04.445Z,13.97
2018-03-25T14:33:31.830Z,13.90
2018-03-25T14:35:59.230Z,13.53
2018-03-25T14:38:26.622Z,14.60
2018-03-25T14:40:54.057Z,13.30
2018-03-25T14:43:21.503Z,14.80
2018-03-25T14:45:48.902Z,13.00
2018-03-25T14:48:16.315Z,14.03
2018-03-25T14:50:43.723Z,14.67
2018-03-25T14:53:11.119Z,14.87
2018-03-25T14:55:38.527Z,15.30
2018-03-25T14:58:05.949Z,15.23
2018-03-25T15:00:33.359Z,13.00
2018-03-25T15:03:00.747Z,12.53
2018-03-25T15:05:28.147Z,13.20
2018-03-25T15:07:55.561Z,14.87
2018-03-25T15:10:23.137Z,14.90
2018-03-25T15:12:50.587Z,14.90
2018-03-25T15:15:18.038Z,13.80
2018-03-25T15:17:45.435Z,13.80
2018-03-25T15:20:12.836Z,13.43
2018-03-25T15:22:40.323Z,14.77
2018-03-25T15:25:07.731Z,13.63
2018-03-25T15:27:35.124Z,13.33
2018-03-25T15:30:02.568Z,13.03
2018-03-25T15:32:29.975Z,14.27
2018-03-25T15:34:57.383Z,13.50
2018-03-25T15:37:25.660Z,13.77
2018-03-25T15:39:53.060Z,14.40
2018-03-25T15:42:20.523Z,13.37
2018-03-25T15:44:47.927Z,13.63
2018-03-25T15:47:15.339Z,13.77
2018-03-25T15:49:42.792Z,15.90
2018-03-25T15:52:10.263Z,14.70
2018-03-25T15:54:37.670Z,14.77
2018-03-25T15:57:05.167Z,15.00
2018-03-25T15:59:32.627Z,15.30
2018-03-25T16:02:00.080Z,14.97
2018-03-25T16:04:27.487Z,14.97
2018-03-25T16:06:54.889Z,14.90
2018-03-25T16:09:22.342Z,14.10
2018-03-25T16:11:49.812Z,15.60
2018-03-25T16:14:17.212Z,14.17
2018-03-25T16:16:44.718Z,14.90
2018-03-25T16:19:12.171Z,15.10
2018-03-25T16:21:39.571Z,15.10
2018-03-25T16:24:06.991Z,14.60
2018-03-25T16:26:34.390Z,16.50
2018-03-25T16:29:01.779Z,15.13
2018-03-25T16:31:29.191Z,16.27
2018-03-25T16:33:56.578Z,14.30
2018-03-25T16:36:24.145Z,14.83
2018-03-25T16:38:51.523Z,15.60
2018-03-25T16:41:18.978Z,16.50
2018-03-25T16:43:46.373Z,15.17
2018-03-25T16:46:13.788Z,15.40
2018-03-25T16:48:41.186Z,15.47
2018-03-25T16:51:08.587Z,15.83
2018-03-25T16:53:35.988Z,15.67
2018-03-25T16:56:03.434Z,15.67
2018-03-25T16:58:30.835Z,15.37
2018-03-25T17:00:58.253Z,15.83
2018-03-25T17:03:25.715Z,14.37
2018-03-25T17:05:53.172Z,16.43
2018-03-25T17:08:20.559Z,16.37
2018-03-25T17:10:47.980Z,15.60
2018-03-25T17:13:15.374Z,17.40
2018-03-25T17:15:42.785Z,16.40
2018-03-25T17:18:10.258Z,15.77
2018-03-25T17:20:37.659Z,15.73
2018-03-25T17:23:05.059Z,15.50
2018-03-25T17:25:32.514Z,14.77
2018-03-25T17:27:59.927Z,16.10
2018-03-25T17:30:27.322Z,16.87
2018-03-25T17:32:54.715Z,15.70
2018-03-25T17:35:22.139Z,15.27
2018-03-25T17:37:49.546Z,15.13
2018-03-25T17:40:16.943Z,16.03
2018-03-25T17:42:44.335Z,17.27
2018-03-25T17:45:11.754Z,18.03
2018-03-25T17:47:39.134Z,16.97
2018-03-25T17:50:06.580Z,16.07
2018-03-25T17:52:33.972Z,15.97
2018-03-25T17:55:01.365Z,15.67
2018-03-25T17:57:28.835Z,15.60
2018-03-25T17:59:56.307Z,16.00
2018-03-25T18:02:23.719Z,18.07
2018-03-25T18:04:51.121Z,15.27
2018-03-25T18:07:18.524Z,17.50
2018-03-25T18:09:45.914Z,16.97
2018-03-25T18:12:13.386Z,16.20
2018-03-25T18:14:40.842Z,18.33
2018-03-25T18:17:08.310Z,16.77
2018-03-25T18:19:35.702Z,18.20
2018-03-25T18:22:03.103Z,17.70
2018-03-25T18:24:30.550Z,18.10
2018-03-25T18:26:57.923Z,17.70
2018-03-25T18:29:25.323Z,17.67
2018-03-25T18:31:52.726Z,19.27
2018-03-25T18:34:20.136Z,18.63
2018-03-25T18:36:47.570Z,19.00
2018-03-25T18:39:15.018Z,17.83
2018-03-25T18:41:42.419Z,18.90
2018-03-25T18:44:09.919Z,18.00
2018-03-25T18:46:37.322Z,19.47
2018-03-25T18:49:04.724Z,17.83
2018-03-25T18:51:32.126Z,18.00
2018-03-25T18:53:59.543Z,19.23
2018-03-25T18:56:26.949Z,18.27
2018-03-25T18:58:54.462Z,19.03
2018-03-25T19:01:21.862Z,19.50
2018-03-25T19:03:49.362Z,17.40
2018-03-25T19:06:16.762Z,19.67
2018-03-25T19:08:44.162Z,19.30
2018-03-25T19:11:11.554Z,20.23
2018-03-25T19:13:38.951Z,18.63
2018-03-25T19:16:06.362Z,20.03
2018-03-25T19:18:33.818Z,19.07
2018-03-25T19:21:01.223Z,18.47
2018-03-25T19:23:28.634Z,17.87
2018-03-25T19:25:56.035Z,21.40
2018-03-25T19:28:23.434Z,19.93
2018-03-25T19:30:50.890Z,19.00
2018-03-25T19:33:18.282Z,17.60
2018-03-25T19:35:45.683Z,19.13
2018-03-25T19:38:13.092Z,20.20
2018-03-25T19:40:40.549Z,18.93
2018-03-25T19:43:07.875Z,19.70
2018-03-25T19:45:35.298Z,18.87
2018-03-25T19:48:02.695Z,19.10
2018-03-25T19:50:30.117Z,18.97
2018-03-25T19:52:57.597Z,19.80
2018-03-25T19:55:25.059Z,19.47
2018-03-25T19:57:52.503Z,18.90
2018-03-25T20:00:19.968Z,17.80
2018-03-25T20:02:47.366Z,20.73
2018-03-25T20:05:14.874Z,19.80
2018-03-25T20:07:42.336Z,19.37
2018-03-25T20:10:09.782Z,19.53
2018-03-25T20:12:37.193Z,20.97
2018-03-25T20:15:04.611Z,19.67
2018-03-25T20:17:32.046Z,20.07
2018-03-25T20:19:59.439Z,19.43
2018-03-25T20:22:26.879Z,17.97
2018-03-25T20:24:54.275Z,20.77
2018-03-25T20:27:21.791Z,19.13
2018-03-25T20:29:49.186Z,18.43
2018-03-25T20:32:16.741Z,19.33
2018-03-25T20:34:44.131Z,20.60
2018-03-25T20:37:11.623Z,19.43
2018-03-25T20:39:39.070Z,21.50
2018-03-25T20:42:06.471Z,20.70
2018-03-25T20:44:33.884Z,20.00
2018-03-25T20:47:01.341Z,20.10
2018-03-25T20:49:28.704Z,20.70
2018-03-25T20:51:56.111Z,19.90
2018-03-25T20:54:23.606Z,22.70
2018-03-25T20:56:51.016Z,21.20
2018-03-25T20:59:18.415Z,21.30
2018-03-25T21:01:45.814Z,21.70
2018-03-25T21:04:13.240Z,20.30
2018-03-25T21:06:40.683Z,22.23
2018-03-25T21:09:08.147Z,21.30
2018-03-25T21:11:35.591Z,22.67
2018-03-25T21:14:02.987Z,21.70
2018-03-25T21:16:30.394Z,19.37
2018-03-25T21:18:57.860Z,20.07
2018-03-25T21:21:25.258Z,21.67
2018-03-25T21:23:52.673Z,21.27
2018-03-25T21:26:20.090Z,20.27
2018-03-25T21:28:47.582Z,21.47
2018-03-25T21:31:14.994Z,20.90
2018-03-25T21:33:42.386Z,20.57
2018-03-25T21:36:09.786Z,19.93
2018-03-25T21:38:37.207Z,20.87
2018-03-25T21:41:04.606Z,21.63
2018-03-25T21:43:32.016Z,21.60
2018-03-25T21:45:59.471Z,23.10
2018-03-25T21:48:26.928Z,20.40
2018-03-25T21:50:54.380Z,23.40
2018-03-25T21:53:21.838Z,21.47
2018-03-25T21:55:49.291Z,23.00
2018-03-25T21:58:16.699Z,23.27
2018-03-25T22:00:44.136Z,22.67
2018-03-25T22:03:11.577Z,22.00
2018-03-25T22:05:39.050Z,21.83
2018-03-25T22:08:06.487Z,22.97
2018-03-25T22:10:33.891Z,21.13
2018-03-25T22:13:01.284Z,22.87
2018-03-25T22:15:28.689Z,23.23
2018-03-25T22:17:56.114Z,24.70
2018-03-25T22:20:23.515Z,23.90
2018-03-25T22:22:50.931Z,22.90
2018-03-25T22:25:18.323Z,23.03
2018-03-25T22:27:45.722Z,23.47
2018-03-25T22:30:13.193Z,25.00
2018-03-25T22:32:40.659Z,22.97
2018-03-25T22:35:08.102Z,23.80
2018-03-25T22:37:35.505Z,23.17
2018-03-25T22:40:02.900Z,24.50
2018-03-25T22:42:30.302Z,24.40
2018-03-25T22:44:57.747Z,25.60
2018-03-25T22:47:25.083Z,25.60
2018-03-25T22:49:52.539Z,25.97
2018-03-25T22:52:19.934Z,23.93
2018-03-25T22:54:47.333Z,25.33
2018-03-25T22:57:14.730Z,25.20
2018-03-25T22:59:42.151Z,25.67
2018-03-25T23:02:09.534Z,25.63
2018-03-25T23:04:36.933Z,23.97
2018-03-25T23:07:04.323Z,27.83
2018-03-25T23:09:31.796Z,27.10
2018-03-25T23:11:59.178Z,27.60
2018-03-25T23:14:26.562Z,27.33
2018-03-25T23:16:54.048Z,28.63
2018-03-25T23:19:21.811Z,28.50
2018-03-25T23:21:49.214Z,30.27
2018-03-25T23:24:16.606Z,29.40
2018-03-25T23:26:44.034Z,28.87
2018-03-25T23:29:11.432Z,27.67
2018-03-25T23:31:38.818Z,28.87
2018-03-25T23:34:06.227Z,27.30
2018-03-25T23:36:33.662Z,28.70
2018-03-25T23:39:01.063Z,26.73
2018-03-25T23:41:28.451Z,27.90
2018-03-25T23:43:55.844Z,27.53
2018-03-25T23:46:23.243Z,30.47
2018-03-25T23:48:50.634Z,31.03
2018-03-25T23:51:18.028Z,29.33
2018-03-25T23:53:45.438Z,30.70
2018-03-25T23:56:12.826Z,31.33
2018-03-25T23:58:40.242Z,31.80
